sensor_id;sensor_type;location;lat;lon;timestamp;pressure;altitude;pressure_sealevel;temperature;humidity
68230;BME280;55048;52.220;5.160;2022-11-21T00:00:51;100520.69;;;4.02;86.59
68230;BME280;55048;52.220;5.160;2022-11-21T00:03:17;100542.56;;;4.16;86.50
68230;BME280;55048;52.220;5.160;2022-11-21T00:05:45;100537.69;;;4.19;86.24
68230;BME280;55048;52.220;5.160;2022-11-21T00:08:14;100548.44;;;4.24;86.23
68230;BME280;55048;52.220;5.160;2022-11-21T00:10:40;100483.19;;;3.80;86.31
68230;BME280;55048;52.220;5.160;2022-11-21T00:13:06;100521.06;;;4.19;86.49
68230;BME280;55048;52.220;5.160;2022-11-21T00:15:33;100512.97;;;4.14;86.35
68230;BME280;55048;52.220;5.160;2022-11-21T00:18:02;100544.56;;;4.27;86.12
68230;BME280;55048;52.220;5.160;2022-11-21T00:20:27;100514.22;;;4.11;86.31
68230;BME280;55048;52.220;5.160;2022-11-21T00:22:53;100546.00;;;4.29;86.48
68230;BME280;55048;52.220;5.160;2022-11-21T00:25:21;100533.84;;;4.28;86.01
68230;BME280;55048;52.220;5.160;2022-11-21T00:27:47;100545.41;;;4.34;85.96
68230;BME280;55048;52.220;5.160;2022-11-21T00:30:12;100339.84;;;2.83;85.68
68230;BME280;55048;52.220;5.160;2022-11-21T00:32:38;100553.31;;;4.34;85.87
68230;BME280;55048;52.220;5.160;2022-11-21T00:35:04;100512.16;;;3.93;85.91
68230;BME280;55048;52.220;5.160;2022-11-21T00:37:33;100474.91;;;3.90;85.58
68230;BME280;55048;52.220;5.160;2022-11-21T00:39:59;100312.19;;;2.87;85.47
68230;BME280;55048;52.220;5.160;2022-11-21T00:42:24;100530.00;;;4.24;85.52
68230;BME280;55048;52.220;5.160;2022-11-21T00:44:50;100541.94;;;4.40;85.73
68230;BME280;55048;52.220;5.160;2022-11-21T00:47:16;100503.06;;;4.09;85.29
68230;BME280;55048;52.220;5.160;2022-11-21T00:49:41;100559.94;;;4.23;85.39
68230;BME280;55048;52.220;5.160;2022-11-21T00:52:06;100524.72;;;4.11;85.64
68230;BME280;55048;52.220;5.160;2022-11-21T00:54:32;100478.34;;;3.83;85.49
68230;BME280;55048;52.220;5.160;2022-11-21T00:56:57;100489.06;;;3.95;85.49
68230;BME280;55048;52.220;5.160;2022-11-21T00:59:23;100546.22;;;4.34;85.28
68230;BME280;55048;52.220;5.160;2022-11-21T01:01:48;100409.13;;;3.56;85.34
68230;BME280;55048;52.220;5.160;2022-11-21T01:04:13;100535.88;;;4.40;85.57
68230;BME280;55048;52.220;5.160;2022-11-21T01:06:39;100517.47;;;4.20;85.03
68230;BME280;55048;52.220;5.160;2022-11-21T01:09:04;100385.84;;;3.40;84.87
68230;BME280;55048;52.220;5.160;2022-11-21T01:11:30;100531.81;;;4.24;85.10
68230;BME280;55048;52.220;5.160;2022-11-21T01:13:56;100536.28;;;4.37;85.25
68230;BME280;55048;52.220;5.160;2022-11-21T01:16:24;100539.31;;;4.33;85.28
68230;BME280;55048;52.220;5.160;2022-11-21T01:18:50;100333.19;;;2.80;85.17
68230;BME280;55048;52.220;5.160;2022-11-21T01:21:22;100552.06;;;4.30;85.24
68230;BME280;55048;52.220;5.160;2022-11-21T01:23:48;100558.97;;;4.31;85.57
68230;BME280;55048;52.220;5.160;2022-11-21T01:26:17;100540.53;;;4.31;85.58
68230;BME280;55048;52.220;5.160;2022-11-21T01:28:43;100526.34;;;4.32;85.49
68230;BME280;55048;52.220;5.160;2022-11-21T01:31:15;100498.63;;;4.16;85.45
68230;BME280;55048;52.220;5.160;2022-11-21T01:33:41;100516.03;;;4.30;85.53
68230;BME280;55048;52.220;5.160;2022-11-21T01:36:12;100519.47;;;4.31;85.60
68230;BME280;55048;52.220;5.160;2022-11-21T01:38:39;100309.13;;;2.77;85.35
68230;BME280;55048;52.220;5.160;2022-11-21T01:41:06;100142.34;;;1.87;85.17
68230;BME280;55048;52.220;5.160;2022-11-21T01:43:32;100517.63;;;4.18;85.96
68230;BME280;55048;52.220;5.160;2022-11-21T01:46:00;100513.78;;;4.14;85.78
68230;BME280;55048;52.220;5.160;2022-11-21T01:48:31;100386.03;;;3.25;85.74
68230;BME280;55048;52.220;5.160;2022-11-21T01:51:02;100472.88;;;3.85;85.61
68230;BME280;55048;52.220;5.160;2022-11-21T01:53:30;100508.31;;;3.96;85.62
68230;BME280;55048;52.220;5.160;2022-11-21T01:55:56;100396.34;;;3.27;85.38
68230;BME280;55048;52.220;5.160;2022-11-21T01:58:21;100458.09;;;3.64;85.66
68230;BME280;55048;52.220;5.160;2022-11-21T02:00:48;100482.56;;;3.71;85.80
68230;BME280;55048;52.220;5.160;2022-11-21T02:03:18;100545.38;;;4.14;85.52
68230;BME280;55048;52.220;5.160;2022-11-21T02:05:44;100524.72;;;4.04;85.58
68230;BME280;55048;52.220;5.160;2022-11-21T02:08:17;100508.50;;;3.94;85.37
68230;BME280;55048;52.220;5.160;2022-11-21T02:10:55;100522.88;;;4.05;85.27
68230;BME280;55048;52.220;5.160;2022-11-21T02:13:22;100525.53;;;4.05;85.47
68230;BME280;55048;52.220;5.160;2022-11-21T02:15:48;100271.88;;;2.47;85.49
68230;BME280;55048;52.220;5.160;2022-11-21T02:18:13;100425.25;;;3.33;85.43
68230;BME280;55048;52.220;5.160;2022-11-21T02:20:44;100418.22;;;3.41;85.14
68230;BME280;55048;52.220;5.160;2022-11-21T02:23:25;100505.28;;;3.99;85.23
68230;BME280;55048;52.220;5.160;2022-11-21T02:25:54;100512.97;;;4.00;85.16
68230;BME280;55048;52.220;5.160;2022-11-21T02:28:21;100444.31;;;3.62;85.27
68230;BME280;55048;52.220;5.160;2022-11-21T02:30:48;100487.06;;;3.97;85.32
68230;BME280;55048;52.220;5.160;2022-11-21T02:33:13;100485.84;;;3.93;84.90
68230;BME280;55048;52.220;5.160;2022-11-21T02:35:39;100517.44;;;4.26;84.95
68230;BME280;55048;52.220;5.160;2022-11-21T02:38:24;100501.25;;;4.03;84.87
68230;BME280;55048;52.220;5.160;2022-11-21T02:41:17;100492.94;;;4.06;85.49
68230;BME280;55048;52.220;5.160;2022-11-21T02:43:54;100394.16;;;3.44;85.45
68230;BME280;55048;52.220;5.160;2022-11-21T02:46:21;100443.34;;;3.76;85.14
68230;BME280;55048;52.220;5.160;2022-11-21T02:48:47;100385.66;;;3.42;84.96
68230;BME280;55048;52.220;5.160;2022-11-21T02:51:12;100425.94;;;3.69;85.17
68230;BME280;55048;52.220;5.160;2022-11-21T02:53:38;100271.53;;;2.70;84.91
68230;BME280;55048;52.220;5.160;2022-11-21T02:56:03;100466.00;;;3.91;85.32
68230;BME280;55048;52.220;5.160;2022-11-21T02:58:28;100470.25;;;3.98;85.15
68230;BME280;55048;52.220;5.160;2022-11-21T03:00:54;100538.91;;;4.17;85.35
68230;BME280;55048;52.220;5.160;2022-11-21T03:03:20;100394.34;;;3.42;85.36
68230;BME280;55048;52.220;5.160;2022-11-21T03:05:45;100299.25;;;2.86;85.28
68230;BME280;55048;52.220;5.160;2022-11-21T03:08:11;100508.13;;;4.04;85.49
68230;BME280;55048;52.220;5.160;2022-11-21T03:10:36;100506.69;;;4.15;85.70
68230;BME280;55048;52.220;5.160;2022-11-21T03:13:02;100486.66;;;4.07;85.34
68230;BME280;55048;52.220;5.160;2022-11-21T03:15:29;100489.72;;;4.11;85.52
68230;BME280;55048;52.220;5.160;2022-11-21T03:17:55;100389.69;;;3.44;85.65
68230;BME280;55048;52.220;5.160;2022-11-21T03:20:21;100446.34;;;3.67;85.66
68230;BME280;55048;52.220;5.160;2022-11-21T03:22:46;100466.81;;;3.91;85.74
68230;BME280;55048;52.220;5.160;2022-11-21T03:25:12;100458.53;;;3.88;85.99
68230;BME280;55048;52.220;5.160;2022-11-21T03:27:37;100460.34;;;3.87;85.83
68230;BME280;55048;52.220;5.160;2022-11-21T03:30:03;100428.75;;;3.67;86.31
68230;BME280;55048;52.220;5.160;2022-11-21T03:32:28;100397.59;;;3.51;85.95
68230;BME280;55048;52.220;5.160;2022-11-21T03:34:53;100312.59;;;2.91;85.80
68230;BME280;55048;52.220;5.160;2022-11-21T03:37:19;100174.66;;;2.07;85.71
68230;BME280;55048;52.220;5.160;2022-11-21T03:39:44;100492.53;;;3.89;85.82
68230;BME280;55048;52.220;5.160;2022-11-21T03:42:09;100457.50;;;3.75;85.76
68230;BME280;55048;52.220;5.160;2022-11-21T03:44:35;100425.31;;;3.60;85.84
68230;BME280;55048;52.220;5.160;2022-11-21T03:47:00;100360.13;;;3.16;85.70
68230;BME280;55048;52.220;5.160;2022-11-21T03:49:26;100278.63;;;2.76;86.00
68230;BME280;55048;52.220;5.160;2022-11-21T03:51:51;100442.31;;;3.71;86.24
68230;BME280;55048;52.220;5.160;2022-11-21T03:54:16;100410.94;;;3.63;85.70
68230;BME280;55048;52.220;5.160;2022-11-21T03:56:42;100364.00;;;3.33;85.79
68230;BME280;55048;52.220;5.160;2022-11-21T03:59:07;100452.66;;;3.86;86.38
68230;BME280;55048;52.220;5.160;2022-11-21T04:01:33;100402.44;;;3.47;86.10
68230;BME280;55048;52.220;5.160;2022-11-21T04:03:58;100398.59;;;3.43;86.18
68230;BME280;55048;52.220;5.160;2022-11-21T04:06:24;100444.56;;;3.80;86.27
68230;BME280;55048;52.220;5.160;2022-11-21T04:08:50;100445.38;;;3.74;86.13
68230;BME280;55048;52.220;5.160;2022-11-21T04:11:16;100402.44;;;3.54;85.69
68230;BME280;55048;52.220;5.160;2022-11-21T04:13:42;100456.91;;;3.80;85.89
68230;BME280;55048;52.220;5.160;2022-11-21T04:16:07;100439.31;;;3.74;85.48
68230;BME280;55048;52.220;5.160;2022-11-21T04:18:33;100464.38;;;3.96;85.62
68230;BME280;55048;52.220;5.160;2022-11-21T04:21:01;100462.38;;;3.98;85.43
68230;BME280;55048;52.220;5.160;2022-11-21T04:23:27;100457.31;;;3.97;85.34
68230;BME280;55048;52.220;5.160;2022-11-21T04:25:52;100396.78;;;3.64;85.31
68230;BME280;55048;52.220;5.160;2022-11-21T04:28:18;100428.34;;;3.77;85.52
68230;BME280;55048;52.220;5.160;2022-11-21T04:30:43;100439.69;;;3.84;85.54
68230;BME280;55048;52.220;5.160;2022-11-21T04:33:10;100450.22;;;3.91;86.18
68230;BME280;55048;52.220;5.160;2022-11-21T04:35:36;100445.97;;;3.83;86.05
68230;BME280;55048;52.220;5.160;2022-11-21T04:38:01;100398.19;;;3.53;85.63
68230;BME280;55048;52.220;5.160;2022-11-21T04:40:26;100363.38;;;3.31;85.46
68230;BME280;55048;52.220;5.160;2022-11-21T04:42:52;100189.03;;;2.18;85.95
68230;BME280;55048;52.220;5.160;2022-11-21T04:45:17;100375.13;;;3.35;86.31
68230;BME280;55048;52.220;5.160;2022-11-21T04:47:44;100439.91;;;3.89;85.85
68230;BME280;55048;52.220;5.160;2022-11-21T04:50:12;100438.72;;;3.92;86.19
68230;BME280;55048;52.220;5.160;2022-11-21T04:52:38;100205.03;;;2.36;86.00
68230;BME280;55048;52.220;5.160;2022-11-21T04:55:04;100443.97;;;3.92;86.14
68230;BME280;55048;52.220;5.160;2022-11-21T04:57:31;100416.22;;;3.76;86.04
68230;BME280;55048;52.220;5.160;2022-11-21T04:59:56;100346.41;;;3.40;85.82
68230;BME280;55048;52.220;5.160;2022-11-21T05:02:22;100342.97;;;3.40;85.93
68230;BME280;55048;52.220;5.160;2022-11-21T05:04:48;100417.44;;;4.00;86.10
68230;BME280;55048;52.220;5.160;2022-11-21T05:07:14;100407.13;;;3.98;86.15
68230;BME280;55048;52.220;5.160;2022-11-21T05:09:40;100194.13;;;2.39;85.52
68230;BME280;55048;52.220;5.160;2022-11-21T05:12:05;100405.91;;;3.94;86.34
68230;BME280;55048;52.220;5.160;2022-11-21T05:14:49;100310.63;;;3.32;86.31
68230;BME280;55048;52.220;5.160;2022-11-21T05:17:15;100353.69;;;3.58;86.11
68230;BME280;55048;52.220;5.160;2022-11-21T05:19:41;100357.16;;;3.52;86.30
68230;BME280;55048;52.220;5.160;2022-11-21T05:22:06;100389.13;;;3.75;86.72
68230;BME280;55048;52.220;5.160;2022-11-21T05:24:32;100395.41;;;3.74;86.26
68230;BME280;55048;52.220;5.160;2022-11-21T05:26:57;100407.50;;;3.95;86.49
68230;BME280;55048;52.220;5.160;2022-11-21T05:29:23;100359.59;;;3.60;86.42
68230;BME280;55048;52.220;5.160;2022-11-21T05:31:48;100101.66;;;2.11;86.09
68230;BME280;55048;52.220;5.160;2022-11-21T05:34:13;100367.66;;;3.72;86.31
68230;BME280;55048;52.220;5.160;2022-11-21T05:36:39;100354.72;;;3.70;85.83
68230;BME280;55048;52.220;5.160;2022-11-21T05:39:04;100210.97;;;2.78;86.47
68230;BME280;55048;52.220;5.160;2022-11-21T05:41:30;100368.66;;;3.77;86.44
68230;BME280;55048;52.220;5.160;2022-11-21T05:43:55;100277.06;;;3.21;86.44
68230;BME280;55048;52.220;5.160;2022-11-21T05:46:22;100378.38;;;3.90;86.67
68230;BME280;55048;52.220;5.160;2022-11-21T05:48:49;100321.16;;;3.52;86.77
68230;BME280;55048;52.220;5.160;2022-11-21T05:51:16;100152.72;;;2.28;86.13
68230;BME280;55048;52.220;5.160;2022-11-21T05:53:42;100281.91;;;3.31;86.42
68230;BME280;55048;52.220;5.160;2022-11-21T05:56:13;100373.94;;;3.91;86.70
68230;BME280;55048;52.220;5.160;2022-11-21T05:58:39;100006.69;;;1.41;86.22
68230;BME280;55048;52.220;5.160;2022-11-21T06:01:06;100191.59;;;2.86;86.12
68230;BME280;55048;52.220;5.160;2022-11-21T06:03:37;100238.06;;;3.05;86.29
68230;BME280;55048;52.220;5.160;2022-11-21T06:06:05;100371.50;;;3.96;86.20
68230;BME280;55048;52.220;5.160;2022-11-21T06:08:36;100366.44;;;3.94;86.41
68230;BME280;55048;52.220;5.160;2022-11-21T06:11:02;100359.16;;;3.76;86.34
68230;BME280;55048;52.220;5.160;2022-11-21T06:13:28;100266.56;;;3.35;86.40
68230;BME280;55048;52.220;5.160;2022-11-21T06:18:23;100369.88;;;4.01;86.63
68230;BME280;55048;52.220;5.160;2022-11-21T06:20:48;100133.78;;;2.46;86.77
68230;BME280;55048;52.220;5.160;2022-11-21T06:23:14;100291.03;;;3.55;86.79
68230;BME280;55048;52.220;5.160;2022-11-21T06:25:40;100325.38;;;3.67;86.54
68230;BME280;55048;52.220;5.160;2022-11-21T06:28:06;100155.41;;;2.74;86.30
68230;BME280;55048;52.220;5.160;2022-11-21T06:30:32;100364.78;;;4.20;86.19
68230;BME280;55048;52.220;5.160;2022-11-21T06:32:57;100264.13;;;3.60;86.00
68230;BME280;55048;52.220;5.160;2022-11-21T06:35:22;100304.97;;;3.69;86.46
68230;BME280;55048;52.220;5.160;2022-11-21T06:37:48;100092.00;;;2.44;85.90
68230;BME280;55048;52.220;5.160;2022-11-21T06:40:13;100320.50;;;3.90;86.10
68230;BME280;55048;52.220;5.160;2022-11-21T06:42:39;100329.41;;;3.96;86.17
68230;BME280;55048;52.220;5.160;2022-11-21T06:45:04;100359.91;;;4.30;85.86
68230;BME280;55048;52.220;5.160;2022-11-21T06:47:33;100343.13;;;4.24;86.52
68230;BME280;55048;52.220;5.160;2022-11-21T06:49:59;100327.34;;;4.04;87.02
68230;BME280;55048;52.220;5.160;2022-11-21T06:52:25;100333.81;;;4.22;86.71
68230;BME280;55048;52.220;5.160;2022-11-21T06:54:50;100318.88;;;3.96;86.79
68230;BME280;55048;52.220;5.160;2022-11-21T06:57:15;100096.44;;;2.50;87.18
68230;BME280;55048;52.220;5.160;2022-11-21T06:59:41;100320.91;;;3.94;87.13
68230;BME280;55048;52.220;5.160;2022-11-21T07:02:12;100330.59;;;4.00;87.16
68230;BME280;55048;52.220;5.160;2022-11-21T07:04:38;100054.03;;;2.40;86.61
68230;BME280;55048;52.220;5.160;2022-11-21T07:07:03;100333.22;;;4.00;87.13
68230;BME280;55048;52.220;5.160;2022-11-21T07:09:29;100291.19;;;3.80;87.54
68230;BME280;55048;52.220;5.160;2022-11-21T07:11:55;100255.38;;;3.72;87.10
68230;BME280;55048;52.220;5.160;2022-11-21T07:14:40;99825.66;;;0.89;86.48
68230;BME280;55048;52.220;5.160;2022-11-21T07:17:10;100016.09;;;2.23;86.85
68230;BME280;55048;52.220;5.160;2022-11-21T07:19:36;100288.53;;;3.93;87.08
68230;BME280;55048;52.220;5.160;2022-11-21T07:22:01;100286.53;;;3.82;87.21
68230;BME280;55048;52.220;5.160;2022-11-21T07:24:26;100244.03;;;3.85;86.88
68230;BME280;55048;52.220;5.160;2022-11-21T07:26:52;100279.97;;;4.18;86.81
68230;BME280;55048;52.220;5.160;2022-11-21T07:29:17;100037.50;;;2.40;86.33
68230;BME280;55048;52.220;5.160;2022-11-21T07:31:42;100277.16;;;4.13;86.60
68230;BME280;55048;52.220;5.160;2022-11-21T07:34:08;100107.72;;;3.04;86.88
68230;BME280;55048;52.220;5.160;2022-11-21T07:36:33;100078.28;;;2.62;87.12
68230;BME280;55048;52.220;5.160;2022-11-21T07:39:00;100053.63;;;2.37;87.15
68230;BME280;55048;52.220;5.160;2022-11-21T07:41:25;100076.63;;;2.88;86.91
68230;BME280;55048;52.220;5.160;2022-11-21T07:43:51;100245.22;;;3.96;86.99
68230;BME280;55048;52.220;5.160;2022-11-21T07:46:16;99907.16;;;1.87;86.40
68230;BME280;55048;52.220;5.160;2022-11-21T07:48:41;100314.09;;;4.44;86.59
68230;BME280;55048;52.220;5.160;2022-11-21T07:51:07;99956.97;;;2.07;86.43
68230;BME280;55048;52.220;5.160;2022-11-21T07:53:32;99978.13;;;2.45;87.08
68230;BME280;55048;52.220;5.160;2022-11-21T07:55:58;100279.06;;;4.37;86.84
68230;BME280;55048;52.220;5.160;2022-11-21T07:58:24;100038.47;;;2.85;86.49
68230;BME280;55048;52.220;5.160;2022-11-21T08:00:49;100081.22;;;3.12;86.69
68230;BME280;55048;52.220;5.160;2022-11-21T08:03:15;100202.75;;;3.92;87.04
68230;BME280;55048;52.220;5.160;2022-11-21T08:05:41;100160.75;;;3.66;87.98
68230;BME280;55048;52.220;5.160;2022-11-21T08:08:08;100184.72;;;3.89;86.85
68230;BME280;55048;52.220;5.160;2022-11-21T08:10:37;100088.66;;;3.28;87.04
68230;BME280;55048;52.220;5.160;2022-11-21T08:13:03;100141.72;;;3.70;87.18
68230;BME280;55048;52.220;5.160;2022-11-21T08:15:28;100033.41;;;2.84;86.71
68230;BME280;55048;52.220;5.160;2022-11-21T08:17:53;100142.47;;;3.84;86.94
68230;BME280;55048;52.220;5.160;2022-11-21T08:20:19;100134.19;;;3.80;87.25
68230;BME280;55048;52.220;5.160;2022-11-21T08:22:44;100239.13;;;4.47;87.25
68230;BME280;55048;52.220;5.160;2022-11-21T08:25:09;100198.53;;;4.29;87.59
68230;BME280;55048;52.220;5.160;2022-11-21T08:27:37;100259.50;;;4.65;87.67
68230;BME280;55048;52.220;5.160;2022-11-21T08:30:05;100244.16;;;4.55;87.20
68230;BME280;55048;52.220;5.160;2022-11-21T08:32:31;100150.44;;;4.09;87.22
68230;BME280;55048;52.220;5.160;2022-11-21T08:34:56;100161.97;;;4.08;87.45
68230;BME280;55048;52.220;5.160;2022-11-21T08:37:22;100139.75;;;4.04;87.31
68230;BME280;55048;52.220;5.160;2022-11-21T08:39:47;100151.25;;;4.09;86.94
68230;BME280;55048;52.220;5.160;2022-11-21T08:42:12;100226.22;;;4.70;87.96
68230;BME280;55048;52.220;5.160;2022-11-21T08:44:38;100236.50;;;4.85;88.02
68230;BME280;55048;52.220;5.160;2022-11-21T08:47:03;100230.94;;;4.93;87.62
68230;BME280;55048;52.220;5.160;2022-11-21T08:49:30;100168.41;;;4.57;88.09
68230;BME280;55048;52.220;5.160;2022-11-21T08:51:56;100159.50;;;4.51;88.29
68230;BME280;55048;52.220;5.160;2022-11-21T08:54:22;100123.34;;;4.33;88.07
68230;BME280;55048;52.220;5.160;2022-11-21T08:56:49;100210.16;;;4.78;88.14
68230;BME280;55048;52.220;5.160;2022-11-21T08:59:15;100204.69;;;4.80;87.88
68230;BME280;55048;52.220;5.160;2022-11-21T09:01:41;100123.09;;;4.42;88.06
68230;BME280;55048;52.220;5.160;2022-11-21T09:04:07;100225.31;;;5.15;88.09
68230;BME280;55048;52.220;5.160;2022-11-21T09:06:33;100203.75;;;4.99;87.88
68230;BME280;55048;52.220;5.160;2022-11-21T09:08:59;100218.75;;;5.24;87.88
68230;BME280;55048;52.220;5.160;2022-11-21T09:11:24;100212.97;;;5.33;87.96
68230;BME280;55048;52.220;5.160;2022-11-21T09:13:51;100219.63;;;5.36;87.91
68230;BME280;55048;52.220;5.160;2022-11-21T09:16:35;100137.34;;;4.91;87.69
68230;BME280;55048;52.220;5.160;2022-11-21T09:19:19;100126.00;;;4.90;88.55
68230;BME280;55048;52.220;5.160;2022-11-21T09:21:47;100120.22;;;5.00;88.14
68230;BME280;55048;52.220;5.160;2022-11-21T09:24:13;100097.81;;;4.91;88.14
68230;BME280;55048;52.220;5.160;2022-11-21T09:26:38;100092.09;;;4.94;88.88
68230;BME280;55048;52.220;5.160;2022-11-21T09:29:03;100077.75;;;4.90;88.79
68230;BME280;55048;52.220;5.160;2022-11-21T09:31:29;100163.31;;;5.49;88.58
68230;BME280;55048;52.220;5.160;2022-11-21T09:33:54;100003.28;;;4.57;88.77
68230;BME280;55048;52.220;5.160;2022-11-21T09:36:19;100093.44;;;5.21;88.78
68230;BME280;55048;52.220;5.160;2022-11-21T09:38:45;100039.34;;;5.00;87.91
68230;BME280;55048;52.220;5.160;2022-11-21T09:47:41;100103.09;;;5.64;88.56
68230;BME280;55048;52.220;5.160;2022-11-21T09:49:45;100166.53;;;6.06;88.28
68230;BME280;55048;52.220;5.160;2022-11-21T09:52:12;100157.75;;;6.12;88.78
68230;BME280;55048;52.220;5.160;2022-11-21T09:54:47;100174.03;;;6.09;88.67
68230;BME280;55048;52.220;5.160;2022-11-21T09:57:17;100159.34;;;6.13;88.55
68230;BME280;55048;52.220;5.160;2022-11-21T09:59:44;100158.25;;;6.21;88.48
68230;BME280;55048;52.220;5.160;2022-11-21T10:02:17;100143.38;;;6.08;89.22
68230;BME280;55048;52.220;5.160;2022-11-21T10:04:44;100148.34;;;6.16;88.73
68230;BME280;55048;52.220;5.160;2022-11-21T10:07:16;100131.97;;;5.96;89.44
68230;BME280;55048;52.220;5.160;2022-11-21T10:10:04;100153.41;;;6.18;89.06
68230;BME280;55048;52.220;5.160;2022-11-21T10:13:08;100150.09;;;6.22;89.21
68230;BME280;55048;52.220;5.160;2022-11-21T10:16:02;100113.84;;;5.99;89.03
68230;BME280;55048;52.220;5.160;2022-11-21T10:21:04;100147.72;;;6.32;89.90
68230;BME280;55048;52.220;5.160;2022-11-21T10:23:41;100145.00;;;6.39;89.38
68230;BME280;55048;52.220;5.160;2022-11-21T10:26:23;100132.31;;;6.29;89.57
68230;BME280;55048;52.220;5.160;2022-11-21T10:29:23;100128.47;;;6.44;89.83
68230;BME280;55048;52.220;5.160;2022-11-21T10:31:54;100131.00;;;6.50;89.04
68230;BME280;55048;52.220;5.160;2022-11-21T10:34:25;100135.03;;;6.53;89.00
68230;BME280;55048;52.220;5.160;2022-11-21T10:37:17;100060.44;;;6.16;88.59
68230;BME280;55048;52.220;5.160;2022-11-21T10:39:47;100097.56;;;6.44;88.94
68230;BME280;55048;52.220;5.160;2022-11-21T10:44:59;100104.13;;;6.65;89.07
68230;BME280;55048;52.220;5.160;2022-11-21T10:47:42;100103.22;;;6.59;90.49
68230;BME280;55048;52.220;5.160;2022-11-21T10:52:35;100100.00;;;6.69;89.92
68230;BME280;55048;52.220;5.160;2022-11-21T10:55:04;100036.00;;;6.32;89.07
68230;BME280;55048;52.220;5.160;2022-11-21T10:57:37;99732.16;;;4.51;88.91
68230;BME280;55048;52.220;5.160;2022-11-21T11:00:15;100095.66;;;6.86;89.09
68230;BME280;55048;52.220;5.160;2022-11-21T11:03:05;100091.28;;;6.92;89.24
68230;BME280;55048;52.220;5.160;2022-11-21T11:05:36;100082.91;;;6.95;89.12
68230;BME280;55048;52.220;5.160;2022-11-21T11:08:11;100075.19;;;7.05;89.20
68230;BME280;55048;52.220;5.160;2022-11-21T11:10:45;100078.06;;;7.15;88.87
68230;BME280;55048;52.220;5.160;2022-11-21T11:13:24;100016.38;;;6.86;89.05
68230;BME280;55048;52.220;5.160;2022-11-21T11:18:25;100022.41;;;6.99;88.66
68230;BME280;55048;52.220;5.160;2022-11-21T11:20:51;100066.53;;;7.33;88.62
68230;BME280;55048;52.220;5.160;2022-11-21T11:23:22;100053.16;;;7.40;88.72
68230;BME280;55048;52.220;5.160;2022-11-21T11:25:54;100048.44;;;7.42;88.45
68230;BME280;55048;52.220;5.160;2022-11-21T11:28:20;100050.41;;;7.35;88.72
68230;BME280;55048;52.220;5.160;2022-11-21T11:30:50;100030.47;;;7.44;89.19
68230;BME280;55048;52.220;5.160;2022-11-21T11:38:35;99890.22;;;6.70;89.39
68230;BME280;55048;52.220;5.160;2022-11-21T11:41:08;99983.81;;;7.38;89.45
68230;BME280;55048;52.220;5.160;2022-11-21T11:44:00;99996.94;;;7.61;89.02
68230;BME280;55048;52.220;5.160;2022-11-21T11:47:07;99997.94;;;7.72;88.79
68230;BME280;55048;52.220;5.160;2022-11-21T11:50:07;99966.88;;;7.67;88.77
68230;BME280;55048;52.220;5.160;2022-11-21T11:53:09;100005.75;;;7.96;89.16
68230;BME280;55048;52.220;5.160;2022-11-21T11:55:49;99931.84;;;7.60;88.67
68230;BME280;55048;52.220;5.160;2022-11-21T11:58:37;99998.53;;;8.08;88.59
68230;BME280;55048;52.220;5.160;2022-11-21T12:01:34;99977.38;;;8.08;88.85
68230;BME280;55048;52.220;5.160;2022-11-21T12:04:20;99970.53;;;8.12;88.74
68230;BME280;55048;52.220;5.160;2022-11-21T12:06:54;99956.41;;;8.06;88.96
68230;BME280;55048;52.220;5.160;2022-11-21T12:09:34;99954.47;;;8.18;88.67
68230;BME280;55048;52.220;5.160;2022-11-21T12:12:24;99949.25;;;8.24;88.47
68230;BME280;55048;52.220;5.160;2022-11-21T12:15:12;99937.59;;;8.25;88.10
68230;BME280;55048;52.220;5.160;2022-11-21T12:21:04;99931.06;;;8.44;88.44
68230;BME280;55048;52.220;5.160;2022-11-21T12:23:46;99921.78;;;8.47;87.87
68230;BME280;55048;52.220;5.160;2022-11-21T12:57:09;99848.88;;;8.66;87.74
68230;BME280;55048;52.220;5.160;2022-11-21T13:05:28;99841.56;;;8.73;87.77
68230;BME280;55048;52.220;5.160;2022-11-21T13:08:10;99807.13;;;8.51;87.63
68230;BME280;55048;52.220;5.160;2022-11-21T13:10:41;99817.28;;;8.59;87.98
68230;BME280;55048;52.220;5.160;2022-11-21T13:15:56;99759.13;;;8.26;88.22
68230;BME280;55048;52.220;5.160;2022-11-21T13:18:32;99815.84;;;8.74;88.18
68230;BME280;55048;52.220;5.160;2022-11-21T13:20:59;99803.94;;;8.76;88.12
68230;BME280;55048;52.220;5.160;2022-11-21T13:23:39;99798.63;;;8.76;87.85
68230;BME280;55048;52.220;5.160;2022-11-21T13:28:49;99781.09;;;8.70;87.73
68230;BME280;55048;52.220;5.160;2022-11-21T13:31:34;99743.16;;;8.42;88.32
68230;BME280;55048;52.220;5.160;2022-11-21T13:34:01;99734.50;;;8.52;87.96
68230;BME280;55048;52.220;5.160;2022-11-21T13:44:37;99752.41;;;8.67;88.01
68230;BME280;55048;52.220;5.160;2022-11-21T13:55:04;99743.72;;;8.72;88.20
68230;BME280;55048;52.220;5.160;2022-11-21T14:09:05;99654.94;;;8.20;87.77
68230;BME280;55048;52.220;5.160;2022-11-21T14:11:32;99711.22;;;8.54;88.06
68230;BME280;55048;52.220;5.160;2022-11-21T14:14:00;99709.88;;;8.52;87.96
68230;BME280;55048;52.220;5.160;2022-11-21T14:18:55;99707.88;;;8.37;87.85
68230;BME280;55048;52.220;5.160;2022-11-21T14:21:28;99705.28;;;8.42;87.98
68230;BME280;55048;52.220;5.160;2022-11-21T14:23:57;99717.72;;;8.41;88.10
68230;BME280;55048;52.220;5.160;2022-11-21T14:26:24;99696.25;;;8.43;87.93
68230;BME280;55048;52.220;5.160;2022-11-21T14:28:50;99684.56;;;8.39;88.03
68230;BME280;55048;52.220;5.160;2022-11-21T14:31:16;99652.97;;;8.10;87.78
68230;BME280;55048;52.220;5.160;2022-11-21T14:33:43;99677.09;;;8.36;87.75
68230;BME280;55048;52.220;5.160;2022-11-21T14:36:20;99668.81;;;8.27;87.92
68230;BME280;55048;52.220;5.160;2022-11-21T14:38:51;99610.16;;;7.91;88.08
68230;BME280;55048;52.220;5.160;2022-11-21T14:46:20;99592.63;;;7.85;87.85
68230;BME280;55048;52.220;5.160;2022-11-21T14:48:46;99601.16;;;7.92;88.50
68230;BME280;55048;52.220;5.160;2022-11-21T14:51:15;99642.06;;;8.29;87.94
68230;BME280;55048;52.220;5.160;2022-11-21T14:53:43;99581.41;;;8.00;87.96
68230;BME280;55048;52.220;5.160;2022-11-21T14:56:19;99552.31;;;7.78;87.90